Clackamas, OR

10:46 PM PDT on August 29, 2016 (GMT -0700)
APRSWXNET | | Change Station

Elev 284 ft 45.41 °N, 122.50 °W | Updated 18 minutes ago

Clear
Clear
64 °F
Feels Like 64 °F
N
1
Wind Variable Wind from SW
Gusts 9.0 mph

Today
High -- | Low -- °F
--% Chance of Precip.
Yesterday
High -- | Low -- °F
Precip. -- in
Pressure 29.99 in
Visibility 10.0 miles
Clouds Clear
Dew Point 53 °F
Humidity 68%
Rainfall in
Snow Depth Not available.
6:28 AM 7:52 PM
Waning Crescent, 5% visible
METAR KTTD 300453Z AUTO 00000KT 10SM CLR 20/13 A2999 RMK AO2 SLP156 T02000133
Pressure 29.99 in
Visibility 10.0 miles
Clouds Clear
Dew Point 53 °F
Humidity 68%
Rainfall in
Snow Depth Not available.
6:28 AM 7:52 PM
Waning Crescent, 5% visible
METAR KTTD 300453Z AUTO 00000KT 10SM CLR 20/13 A2999 RMK AO2 SLP156 T02000133

10-Day Weather Forecast

Almanac

Astronomy

Aug. 29, 2016 Rise Set
Actual Time
Civil Twilight
Nautical Twilight
Astronomical Twilight
Moon
Length of Visible Light
Length of Day
Tomorrow will be .
, % of the Moon is Illuminated

Today's Extremes

State Highs State Lows

Community

WunderPhotos

Upload Photos

1,935,794 photos uploaded!

WunderBlog® & News

Nearby

Air Quality

  Air Quality AQ Index Pollutant
Not available.

Snow Depth

Station Depth Elevation

Earthquake Activity

City Distance Mag. Time & Date
Minimum magnitude displayed is 2.5.

Coastal Water Temperatures

Place Temperature

Stations

Nearby Weather Stations

Station Location Temp. Windchill Dew Point Humidity Wind Precip. Elev Updated Type
                   

Watches & Warnings

There are currently no watches in effect.